Time;durP1;ratioP1;P1;durP2;ratioP2;P2;SDS_P1;SDS_P2;PMS_P1;PMS_P2;Temp;Humidity;BMP_temperature;BMP_pressure;BME280_temperature;BME280_humidity;BME280_pressure;Samples;Min_cycle;Max_cycle;Signal;HPM_P1;HPM_P2
2022/03/21 00:01:26;;;;;;;0.10;0.10;;;;;;;5.71;58.33;103051.31;5007647;28;20512;-85
2022/03/21 00:03:52;;;;;;;0.10;0.10;;;;;;;5.72;58.46;103049.56;5005589;28;20129;-87
2022/03/21 00:06:19;;;;;;;1.65;1.45;;;;;;;5.74;57.62;103055.78;5005793;28;20026;-87
2022/03/21 00:08:45;;;;;;;0.35;0.35;;;;;;;5.72;58.17;103052.19;5011376;28;20116;-86
2022/03/21 00:11:12;;;;;;;0.98;0.98;;;;;;;5.72;57.93;103055.75;5011711;28;20060;-85
2022/03/21 00:13:38;;;;;;;0.45;0.45;;;;;;;5.70;58.30;103054.78;5015638;28;20397;-86
2022/03/21 00:16:05;;;;;;;0.10;0.10;;;;;;;5.72;58.01;103061.00;5005973;28;20030;-85
2022/03/21 00:18:33;;;;;;;0.75;0.22;;;;;;;5.73;58.19;103056.63;5004932;28;20042;-86
2022/03/21 00:20:59;;;;;;;0.20;0.20;;;;;;;5.75;58.01;103053.19;5010513;28;20109;-87
2022/03/21 00:23:26;;;;;;;0.20;0.20;;;;;;;5.74;58.01;103048.78;5010800;28;20489;-86
2022/03/21 00:25:53;;;;;;;1.48;1.45;;;;;;;5.76;57.87;103060.25;5018297;28;20084;-87
2022/03/21 00:28:19;;;;;;;0.52;0.52;;;;;;;5.75;57.77;103054.94;5014582;28;20052;-86
2022/03/21 00:30:46;;;;;;;0.20;0.20;;;;;;;5.74;57.56;103055.78;5013356;28;20060;-87
2022/03/21 00:33:13;;;;;;;0.75;0.75;;;;;;;5.74;57.60;103059.28;5011536;28;20042;-85
2022/03/21 00:35:42;;;;;;;0.10;0.10;;;;;;;5.73;57.55;103059.25;5011946;28;20050;-85
2022/03/21 00:38:13;;;;;;;0.10;0.10;;;;;;;5.74;57.78;103066.31;5009365;28;20121;-86
2022/03/21 00:40:39;;;;;;;0.65;0.65;;;;;;;5.72;57.56;103068.88;5018926;28;20052;-90
2022/03/21 00:43:08;;;;;;;0.10;0.10;;;;;;;5.70;57.76;103069.69;5017051;28;20036;-86
2022/03/21 00:45:34;;;;;;;0.30;0.30;;;;;;;5.70;57.53;103060.03;5012496;28;20030;-86
2022/03/21 00:48:00;;;;;;;0.60;0.60;;;;;;;5.71;57.67;103064.47;5019959;28;20493;-85
2022/03/21 00:50:27;;;;;;;1.30;1.30;;;;;;;5.68;57.79;103061.72;5011111;28;20022;-86
2022/03/21 00:52:56;;;;;;;0.30;0.30;;;;;;;5.69;57.55;103060.00;5011492;28;20026;-86
2022/03/21 00:55:26;;;;;;;0.82;0.82;;;;;;;5.67;57.94;103055.56;5024105;28;20026;-85
2022/03/21 00:57:53;;;;;;;0.38;0.38;;;;;;;5.67;57.51;103060.81;5032191;28;20028;-87
2022/03/21 01:00:22;;;;;;;0.43;0.43;;;;;;;5.65;57.63;103056.34;5020513;28;20034;-85
2022/03/21 01:02:48;;;;;;;0.10;0.10;;;;;;;5.63;57.90;103058.94;5016121;28;20034;-86
2022/03/21 01:05:15;;;;;;;0.20;0.20;;;;;;;5.64;57.91;103059.81;5010121;28;20034;-85
2022/03/21 01:07:42;;;;;;;0.55;0.55;;;;;;;5.64;57.99;103049.28;5012669;28;20114;-85
2022/03/21 01:10:12;;;;;;;0.10;0.10;;;;;;;5.64;57.84;103057.19;5012858;28;20121;-86
2022/03/21 01:12:39;;;;;;;0.10;0.10;;;;;;;5.62;57.75;103061.47;5016921;28;20038;-86
2022/03/21 01:15:06;;;;;;;0.75;0.75;;;;;;;5.62;57.44;103066.75;5010787;28;20041;-86
2022/03/21 01:17:32;;;;;;;3.40;1.30;;;;;;;5.61;57.56;103067.59;5019057;28;20463;-85
2022/03/21 01:19:58;;;;;;;0.45;0.45;;;;;;;5.61;57.78;103070.25;5012054;28;20049;-86
2022/03/21 01:22:24;;;;;;;1.58;1.48;;;;;;;5.61;57.50;103064.97;5013219;28;20030;-86
2022/03/21 01:24:50;;;;;;;0.57;0.57;;;;;;;5.62;57.53;103069.38;5016098;28;20037;-84
2022/03/21 01:27:16;;;;;;;0.10;0.10;;;;;;;5.62;57.19;103069.38;5026750;28;20100;-85
2022/03/21 01:29:42;;;;;;;0.15;0.15;;;;;;;5.60;57.46;103071.94;5028963;28;20030;-87
2022/03/21 01:32:09;;;;;;;3.83;0.90;;;;;;;5.61;57.35;103064.97;5019568;28;20018;-87
2022/03/21 01:34:35;;;;;;;0.17;0.17;;;;;;;5.60;57.77;103063.19;5035434;28;20029;-87
2022/03/21 01:37:01;;;;;;;0.10;0.10;;;;;;;5.60;57.69;103071.06;5028994;28;20042;-86
2022/03/21 01:39:27;;;;;;;1.80;1.70;;;;;;;5.60;57.85;103068.44;5019875;28;20033;-86
2022/03/21 01:41:53;;;;;;;0.25;0.25;;;;;;;5.60;57.71;103073.69;5017299;28;20037;-86
2022/03/21 01:44:21;;;;;;;0.20;0.20;;;;;;;5.60;57.99;103073.69;5020874;28;20023;-85
2022/03/21 01:46:49;;;;;;;1.05;1.05;;;;;;;5.60;57.59;103078.97;5014150;28;20057;-86
2022/03/21 01:49:17;;;;;;;0.10;0.10;;;;;;;5.58;57.47;103081.53;5029905;28;20026;-84
2022/03/21 01:51:44;;;;;;;0.30;0.30;;;;;;;5.56;57.79;103084.94;5029656;28;20025;-85
2022/03/21 01:56:58;;;;;;;0.65;0.65;;;;;;;5.56;57.53;103085.84;5024773;28;20215;-86
2022/03/21 01:59:25;;;;;;;0.50;0.50;;;;;;;5.55;57.77;103088.41;5021584;28;20057;-85
2022/03/21 02:01:51;;;;;;;0.20;0.20;;;;;;;5.55;57.68;103085.78;5015816;28;20091;-87
2022/03/21 02:04:17;;;;;;;0.10;0.10;;;;;;;5.52;58.22;103078.69;5022206;28;20038;-87
2022/03/21 02:06:45;;;;;;;0.88;0.88;;;;;;;5.53;57.43;103076.94;5020453;28;20030;-85
2022/03/21 02:09:12;;;;;;;1.33;1.33;;;;;;;5.50;58.30;103083.88;5019225;28;20026;-86
2022/03/21 02:11:38;;;;;;;0.10;0.10;;;;;;;5.49;58.05;103079.44;5018411;28;20034;-86
2022/03/21 02:14:07;;;;;;;3.92;1.05;;;;;;;5.49;57.86;103082.06;5019923;28;20041;-88
2022/03/21 02:16:35;;;;;;;0.13;0.13;;;;;;;5.48;57.82;103079.38;5015501;28;20034;-86
2022/03/21 02:19:08;;;;;;;0.38;0.38;;;;;;;5.51;57.65;103080.41;5014126;28;20121;-87
2022/03/21 02:25:00;;;;;;;0.10;0.10;;;;;;;5.54;57.52;103082.25;5066324;27;20379;-79
2022/03/21 02:27:28;;;;;;;0.20;0.20;;;;;;;5.47;57.85;103085.47;5064319;28;20037;-79
2022/03/21 02:29:55;;;;;;;0.55;0.55;;;;;;;5.43;57.64;103081.88;5065405;28;20051;-78
2022/03/21 02:32:22;;;;;;;0.63;0.63;;;;;;;5.41;58.40;103080.00;5064690;28;20028;-78
2022/03/21 02:34:49;;;;;;;0.10;0.10;;;;;;;5.40;58.16;103081.75;5065435;28;20041;-79
2022/03/21 02:37:17;;;;;;;1.45;0.63;;;;;;;5.39;58.47;103085.19;5068085;28;20040;-78
2022/03/21 02:39:45;;;;;;;2.03;1.90;;;;;;;5.38;58.48;103088.66;5070500;27;20089;-79
2022/03/21 02:42:13;;;;;;;0.30;0.30;;;;;;;5.37;58.52;103086.91;5067050;28;20029;-79
2022/03/21 02:44:39;;;;;;;0.20;0.20;;;;;;;5.34;58.38;103082.38;5068737;28;20041;-78
2022/03/21 02:47:08;;;;;;;0.40;0.40;;;;;;;5.35;58.39;103083.31;5066728;28;20024;-78
2022/03/21 02:49:34;;;;;;;0.55;0.55;;;;;;;5.33;58.39;103084.97;5066452;28;20029;-77
2022/03/21 02:52:04;;;;;;;0.10;0.10;;;;;;;5.33;58.36;103080.63;5066096;28;20036;-78
2022/03/21 02:54:31;;;;;;;0.20;0.20;;;;;;;5.31;58.09;103092.81;5066489;28;20066;-78
2022/03/21 02:56:58;;;;;;;0.50;0.50;;;;;;;5.30;57.87;103095.38;5066322;28;20085;-78
2022/03/21 02:59:25;;;;;;;0.47;0.47;;;;;;;5.29;58.20;103098.84;5066077;28;20051;-78
2022/03/21 03:01:53;;;;;;;0.35;0.35;;;;;;;5.27;58.18;103106.69;5065828;28;20075;-78
2022/03/21 03:04:21;;;;;;;0.15;0.15;;;;;;;5.24;58.76;103106.53;5066294;28;20025;-77
2022/03/21 03:06:48;;;;;;;0.10;0.10;;;;;;;5.24;58.55;103108.28;5066570;28;20041;-78
2022/03/21 03:09:14;;;;;;;0.52;0.52;;;;;;;5.23;58.58;103107.38;5065580;28;20029;-78
2022/03/21 03:11:40;;;;;;;0.10;0.10;;;;;;;5.22;58.78;103109.94;5065680;28;20078;-78
2022/03/21 03:14:07;;;;;;;0.55;0.55;;;;;;;5.19;58.79;103110.72;5066552;28;20043;-77
2022/03/21 03:16:34;;;;;;;0.73;0.73;;;;;;;5.19;58.70;103113.34;5066641;28;20033;-78
2022/03/21 03:19:00;;;;;;;0.10;0.10;;;;;;;5.17;58.65;103109.75;5065822;28;20349;-78
2022/03/21 03:21:30;;;;;;;0.52;0.52;;;;;;;5.16;58.33;103114.13;5064908;28;20120;-77
2022/03/21 03:23:59;;;;;;;0.10;0.10;;;;;;;5.15;58.93;103114.97;5065987;28;20048;-77
2022/03/21 03:26:25;;;;;;;0.30;0.30;;;;;;;5.14;58.93;103117.53;5064878;28;20036;-78
2022/03/21 03:28:51;;;;;;;0.57;0.57;;;;;;;5.16;58.65;103119.41;5065402;28;20036;-78
2022/03/21 03:31:18;;;;;;;0.10;0.10;;;;;;;5.16;58.59;103114.13;5065143;28;20033;-77
2022/03/21 03:33:45;;;;;;;0.57;0.57;;;;;;;5.13;59.09;103124.50;5066457;28;20081;-78
2022/03/21 03:36:13;;;;;;;0.10;0.10;;;;;;;5.14;58.43;103121.06;5052111;28;20039;-78
2022/03/21 03:38:39;;;;;;;0.30;0.30;;;;;;;5.12;58.59;103125.38;5052271;28;20025;-77
2022/03/21 03:41:05;;;;;;;0.22;0.22;;;;;;;5.09;58.45;103117.34;5051284;28;20025;-78
2022/03/21 03:43:32;;;;;;;0.30;0.30;;;;;;;5.07;59.11;103126.00;5049432;28;20509;-78
2022/03/21 03:45:58;;;;;;;0.20;0.20;;;;;;;5.06;58.89;103125.13;5052309;28;20064;-78
2022/03/21 03:48:28;;;;;;;0.95;0.95;;;;;;;5.08;59.19;103119.94;5051872;28;20029;-78
2022/03/21 03:50:54;;;;;;;0.22;0.22;;;;;;;5.06;59.15;103124.22;5051202;28;20498;-78
2022/03/21 03:53:20;;;;;;;0.30;0.30;;;;;;;5.04;59.25;103121.53;5051248;28;20474;-79
2022/03/21 03:55:47;;;;;;;0.15;0.15;;;;;;;5.05;58.84;103115.44;5051172;28;20033;-78
2022/03/21 03:58:13;;;;;;;0.82;0.77;;;;;;;5.05;58.68;103112.81;5051451;27;20029;-78
2022/03/21 04:00:39;;;;;;;0.10;0.10;;;;;;;5.07;58.97;103113.78;5051365;28;20029;-78
2022/03/21 04:05:52;;;;;;;0.60;0.60;;;;;;;5.08;59.31;103126.06;5046594;28;20033;-79
2022/03/21 04:08:18;;;;;;;0.40;0.40;;;;;;;5.08;58.90;103115.56;5052160;28;20041;-78
2022/03/21 04:10:44;;;;;;;0.10;0.10;;;;;;;5.07;59.12;103118.13;5050738;28;20451;-78
2022/03/21 04:13:11;;;;;;;1.38;1.35;;;;;;;5.06;59.02;103122.50;5051644;27;20031;-78
2022/03/21 04:15:37;;;;;;;0.15;0.15;;;;;;;5.05;59.11;103130.31;5052100;28;20021;-79
2022/03/21 04:18:05;;;;;;;0.10;0.10;;;;;;;5.04;58.52;103129.41;5052119;28;20044;-78
2022/03/21 04:20:32;;;;;;;0.20;0.20;;;;;;;5.01;58.94;103126.69;5051160;28;20068;-79
2022/03/21 04:23:00;;;;;;;1.17;1.17;;;;;;;4.99;59.10;103130.97;5051101;28;20029;-78
2022/03/21 04:25:27;;;;;;;0.10;0.10;;;;;;;4.98;59.19;103126.53;5051419;28;20497;-79
2022/03/21 04:27:53;;;;;;;0.20;0.20;;;;;;;4.96;58.92;103123.88;5051621;28;20047;-78
2022/03/21 04:30:19;;;;;;;0.65;0.65;;;;;;;4.97;58.86;103130.00;5053075;28;20036;-78
2022/03/21 04:32:45;;;;;;;0.30;0.30;;;;;;;4.94;59.38;103128.16;5050073;28;20029;-78
2022/03/21 04:35:12;;;;;;;0.52;0.52;;;;;;;4.93;59.65;103136.88;5049661;28;20524;-78
2022/03/21 04:37:39;;;;;;;0.10;0.10;;;;;;;4.92;59.57;103128.94;5051420;28;20052;-78
2022/03/21 04:40:07;;;;;;;0.30;0.30;;;;;;;4.90;59.64;103134.13;5051307;28;20041;-79
2022/03/21 04:42:34;;;;;;;1.15;1.05;;;;;;;4.86;59.60;103133.09;5049233;28;20112;-79
2022/03/21 04:45:00;;;;;;;0.45;0.45;;;;;;;4.88;59.38;103142.78;5049930;28;20497;-79
2022/03/21 04:47:26;;;;;;;0.17;0.17;;;;;;;4.84;59.65;103141.75;5049038;28;20085;-77
2022/03/21 04:49:53;;;;;;;0.10;0.10;;;;;;;4.83;59.37;103150.47;5050485;28;20419;-79
2022/03/21 04:52:19;;;;;;;0.70;0.70;;;;;;;4.81;59.70;103152.13;5049958;28;20040;-79
2022/03/21 04:54:45;;;;;;;0.20;0.20;;;;;;;4.80;59.66;103148.59;5050415;28;20062;-79
2022/03/21 04:57:12;;;;;;;0.10;0.10;;;;;;;4.79;59.87;103146.81;5050021;28;20041;-79
2022/03/21 04:59:38;;;;;;;1.65;1.17;;;;;;;4.79;59.64;103149.44;5050987;28;20040;-79
2022/03/21 05:02:04;;;;;;;0.10;0.10;;;;;;;4.79;59.80;103152.06;5050198;28;20040;-79
2022/03/21 05:04:31;;;;;;;3.40;1.60;;;;;;;4.77;59.50;103145.88;5052470;28;20021;-79
2022/03/21 05:06:57;;;;;;;0.20;0.20;;;;;;;4.77;59.30;103143.25;5056176;28;20037;-78
2022/03/21 05:09:23;;;;;;;0.80;0.68;;;;;;;4.77;59.71;103148.50;5051868;28;20045;-79
2022/03/21 05:11:49;;;;;;;0.43;0.43;;;;;;;4.76;60.07;103149.31;5050100;28;20040;-79
2022/03/21 05:14:18;;;;;;;0.57;0.57;;;;;;;4.76;60.07;103153.66;5050875;28;20363;-79
2022/03/21 05:16:46;;;;;;;0.10;0.10;;;;;;;4.74;59.77;103153.59;5050864;28;20029;-79
2022/03/21 05:19:12;;;;;;;0.10;0.10;;;;;;;4.72;59.96;103147.38;5050155;28;20051;-79
2022/03/21 05:21:39;;;;;;;1.20;0.63;;;;;;;4.69;60.21;103152.53;5049683;28;20041;-79
2022/03/21 05:32:23;;;;;;;0.30;0.30;;;;;;;4.60;60.53;103154.75;5073162;27;20429;-79
2022/03/21 05:37:35;;;;;;;0.10;0.10;;;;;;;4.53;60.10;103150.97;5049710;28;20093;-79
2022/03/21 05:40:35;;;;;;;0.30;0.30;;;;;;;4.49;59.84;103154.31;5049726;28;20132;-79
2022/03/21 05:42:48;;;;;;;0.20;0.20;;;;;;;4.45;60.69;103157.63;5049453;28;20048;-78
2022/03/21 05:45:19;;;;;;;1.20;1.02;;;;;;;4.42;60.02;103157.50;5052113;28;20033;-79
2022/03/21 05:50:34;;;;;;;0.30;0.30;;;;;;;4.41;59.80;103171.47;5047016;28;20053;-79
2022/03/21 05:53:02;;;;;;;0.32;0.32;;;;;;;4.38;60.29;103156.47;5049437;28;20021;-77
2022/03/21 05:55:29;;;;;;;0.17;0.17;;;;;;;4.40;59.56;103165.31;5047165;27;20041;-77
2022/03/21 05:57:57;;;;;;;0.10;0.10;;;;;;;4.39;60.24;103174.03;5046349;28;20021;-77
2022/03/21 06:00:23;;;;;;;1.65;1.55;;;;;;;4.41;59.87;103175.00;5047229;28;20089;-79
2022/03/21 06:02:51;;;;;;;2.50;2.30;;;;;;;4.42;59.79;103174.13;5048095;28;20036;-79
2022/03/21 06:05:18;;;;;;;0.15;0.15;;;;;;;4.41;60.13;103175.00;5050513;28;20033;-78
2022/03/21 06:07:45;;;;;;;0.20;0.20;;;;;;;4.44;60.51;103171.59;5049904;28;20415;-79
2022/03/21 06:10:12;;;;;;;0.57;0.57;;;;;;;4.46;60.59;103175.19;5050598;28;20029;-79
2022/03/21 06:12:39;;;;;;;5.63;2.13;;;;;;;4.46;60.09;103178.72;5049325;28;20052;-80
2022/03/21 06:15:07;;;;;;;0.10;0.10;;;;;;;4.49;59.61;103186.72;5050491;28;20223;-79
2022/03/21 06:17:38;;;;;;;0.10;0.10;;;;;;;4.52;59.65;103185.94;5049787;28;20037;-79
2022/03/21 06:20:07;;;;;;;1.55;0.95;;;;;;;4.52;60.25;103191.19;5053209;28;20149;-80
2022/03/21 06:22:33;;;;;;;0.47;0.47;;;;;;;4.51;60.74;103192.94;5051737;28;20037;-79
2022/03/21 06:24:59;;;;;;;0.10;0.10;;;;;;;4.53;60.29;103198.25;5049598;28;20033;-79
2022/03/21 06:27:25;;;;;;;0.20;0.20;;;;;;;4.55;60.29;103196.59;5050611;28;20036;-79
2022/03/21 06:29:52;;;;;;;0.10;0.10;;;;;;;4.61;60.38;103198.56;5052450;28;20592;-79
2022/03/21 06:32:18;;;;;;;0.10;0.10;;;;;;;4.62;60.33;103193.41;5050001;28;20390;-80
2022/03/21 06:34:45;;;;;;;0.47;0.47;;;;;;;4.68;60.11;103208.50;5049760;28;20509;-79
2022/03/21 06:37:11;;;;;;;0.20;0.20;;;;;;;4.72;60.32;103205.16;5048144;28;20056;-76
2022/03/21 06:39:37;;;;;;;1.67;1.58;;;;;;;4.77;59.88;103208.00;5046747;28;20025;-76
2022/03/21 06:42:04;;;;;;;0.40;0.40;;;;;;;4.82;59.82;103210.00;5049633;28;20040;-76
2022/03/21 06:44:30;;;;;;;0.17;0.17;;;;;;;4.87;59.65;103218.03;5051651;28;20032;-76
2022/03/21 06:46:58;;;;;;;0.10;0.10;;;;;;;4.91;59.50;103217.38;5050283;28;20052;-76
2022/03/21 06:49:29;;;;;;;0.10;0.10;;;;;;;4.96;59.89;103214.91;5049354;28;20025;-75
2022/03/21 06:51:56;;;;;;;2.73;0.80;;;;;;;4.98;60.07;103211.50;5047100;28;20120;-76
2022/03/21 06:54:23;;;;;;;1.27;1.27;;;;;;;5.04;59.67;103223.13;5047556;28;20028;-77
2022/03/21 06:56:49;;;;;;;0.32;0.32;;;;;;;5.08;59.76;103220.66;5048385;28;20097;-78
2022/03/21 06:59:15;;;;;;;0.10;0.10;;;;;;;5.12;59.32;103224.31;5046832;28;20086;-78
2022/03/21 07:01:41;;;;;;;0.20;0.20;;;;;;;5.15;60.53;103222.72;5048009;28;20037;-78
2022/03/21 07:04:07;;;;;;;0.20;0.20;;;;;;;5.22;60.60;103233.47;5049715;28;20029;-78
2022/03/21 07:06:33;;;;;;;0.88;0.82;;;;;;;5.26;60.77;103232.75;5049150;28;20081;-79
2022/03/21 07:08:59;;;;;;;0.60;0.60;;;;;;;5.29;59.91;103225.03;5049472;28;20044;-78
2022/03/21 07:11:25;;;;;;;0.22;0.22;;;;;;;5.32;60.67;103235.63;5050159;28;20036;-78
2022/03/21 07:13:52;;;;;;;0.65;0.65;;;;;;;5.34;60.02;103229.59;5052429;28;20032;-79
2022/03/21 07:16:18;;;;;;;0.25;0.25;;;;;;;5.40;60.21;103230.72;5051683;28;20032;-76
2022/03/21 07:18:44;;;;;;;0.10;0.10;;;;;;;5.46;59.69;103245.00;5051698;28;20116;-78
2022/03/21 07:21:13;;;;;;;0.20;0.20;;;;;;;5.51;59.72;103237.28;5052966;27;20032;-78
2022/03/21 07:23:39;;;;;;;0.20;0.20;;;;;;;5.56;60.56;103240.09;5051314;28;20086;-79
2022/03/21 07:26:05;;;;;;;1.65;1.30;;;;;;;5.61;59.58;103243.81;5052708;28;20139;-79
2022/03/21 07:28:32;;;;;;;0.22;0.22;;;;;;;5.68;59.15;103248.44;5052142;28;20029;-79
2022/03/21 07:30:58;;;;;;;0.20;0.20;;;;;;;5.75;59.43;103253.13;5051622;28;20029;-78
2022/03/21 07:33:24;;;;;;;0.30;0.30;;;;;;;5.82;59.71;103256.91;5048263;27;20455;-77
2022/03/21 07:35:51;;;;;;;0.10;0.10;;;;;;;5.91;59.92;103259.00;5051586;28;20409;-77
2022/03/21 07:38:19;;;;;;;1.20;0.95;;;;;;;5.97;60.13;103253.97;5044318;28;20041;-77
2022/03/21 07:40:46;;;;;;;0.10;0.10;;;;;;;6.05;60.33;103256.91;5043060;28;20035;-77
2022/03/21 07:43:13;;;;;;;0.10;0.10;;;;;;;6.15;60.34;103253.78;5040175;28;20108;-78
2022/03/21 07:48:27;;;;;;;0.95;0.90;;;;;;;6.32;60.87;103251.78;5051023;27;20054;-78
2022/03/21 07:50:54;;;;;;;0.25;0.25;;;;;;;6.39;60.43;103256.44;5048065;28;20040;-77
2022/03/21 07:53:20;;;;;;;0.40;0.40;;;;;;;6.48;60.71;103258.50;5050058;28;20028;-77
2022/03/21 07:55:47;;;;;;;1.95;1.63;;;;;;;6.55;60.84;103255.22;5050187;28;20394;-77
2022/03/21 07:58:13;;;;;;;0.10;0.10;;;;;;;6.65;60.39;103256.44;5050114;28;20451;-78
2022/03/21 08:00:43;;;;;;;0.68;0.68;;;;;;;6.72;60.82;103257.56;5049674;28;20028;-77
2022/03/21 08:03:14;;;;;;;0.50;0.50;;;;;;;6.84;60.29;103257.09;5047840;28;20025;-77
2022/03/21 08:05:41;;;;;;;0.93;0.93;;;;;;;6.91;60.56;103259.09;5042885;28;20033;-77
2022/03/21 08:08:08;;;;;;;0.85;0.85;;;;;;;6.99;60.24;103262.91;5038355;28;20037;-77
2022/03/21 08:10:35;;;;;;;0.10;0.10;;;;;;;7.09;59.87;103267.63;5049692;28;20029;-76
2022/03/21 08:13:01;;;;;;;0.13;0.13;;;;;;;7.23;59.75;103256.66;5052570;27;20036;-76
2022/03/21 08:15:28;;;;;;;0.47;0.47;;;;;;;7.33;59.45;103258.72;5059106;27;20139;-77
2022/03/21 08:20:33;;;;;;;1.73;1.63;;;;;;;7.56;59.28;103270.03;5033502;28;20478;-77
2022/03/21 08:23:02;;;;;;;0.10;0.10;;;;;;;7.71;59.61;103264.34;5027612;28;20030;-76
2022/03/21 08:25:30;;;;;;;0.10;0.10;;;;;;;7.81;59.04;103268.13;5028297;28;20630;-77
2022/03/21 08:27:56;;;;;;;0.50;0.50;;;;;;;7.94;58.62;103264.13;5030586;28;20025;-80
2022/03/21 08:30:22;;;;;;;0.57;0.57;;;;;;;8.01;58.55;103263.47;5029982;28;20387;-77
2022/03/21 08:32:49;;;;;;;0.40;0.40;;;;;;;8.17;58.46;103256.88;5029660;28;20026;-77
2022/03/21 08:35:18;;;;;;;0.30;0.30;;;;;;;8.30;57.92;103260.78;5033182;28;20041;-79
2022/03/21 08:37:45;;;;;;;0.75;0.63;;;;;;;8.44;58.52;103255.88;5034567;28;20071;-78
2022/03/21 08:40:13;;;;;;;2.05;1.95;;;;;;;8.56;58.10;103253.59;5020595;28;20033;-78
2022/03/21 08:42:39;;;;;;;0.57;0.57;;;;;;;8.67;57.23;103253.91;5034129;28;20034;-78
2022/03/21 08:45:07;;;;;;;0.32;0.32;;;;;;;8.78;57.48;103259.44;5032483;28;20040;-79
2022/03/21 08:47:35;;;;;;;0.52;0.52;;;;;;;8.95;57.07;103249.31;5029993;28;20030;-78
2022/03/21 08:50:02;;;;;;;0.38;0.38;;;;;;;9.12;56.34;103251.50;5030055;28;20038;-79
2022/03/21 08:52:28;;;;;;;0.38;0.38;;;;;;;9.27;56.52;103257.19;5030719;28;20097;-78
2022/03/21 08:54:54;;;;;;;0.20;0.20;;;;;;;9.39;56.12;103252.19;5032076;28;20038;-78
2022/03/21 08:57:21;;;;;;;2.30;2.03;;;;;;;9.51;55.65;103250.69;5032000;28;20084;-79
2022/03/21 08:59:47;;;;;;;0.17;0.17;;;;;;;9.69;55.77;103251.09;5032430;28;20079;-79
2022/03/21 09:02:21;;;;;;;1.38;1.38;;;;;;;9.84;55.23;103250.53;5032208;28;20033;-78
2022/03/21 09:04:47;;;;;;;0.20;0.20;;;;;;;9.98;55.47;103249.91;5030800;28;20097;-79
2022/03/21 09:07:13;;;;;;;1.02;0.98;;;;;;;10.14;55.48;103248.50;5031149;28;20033;-78
2022/03/21 09:09:40;;;;;;;0.57;0.57;;;;;;;10.30;55.29;103239.97;5030955;28;20040;-78
2022/03/21 09:12:07;;;;;;;0.20;0.20;;;;;;;10.45;54.56;103243.84;5028387;28;20050;-77
2022/03/21 09:14:34;;;;;;;0.52;0.52;;;;;;;10.60;54.41;103238.81;5030682;28;20033;-78
2022/03/21 09:17:03;;;;;;;0.25;0.25;;;;;;;10.76;54.39;103239.09;5031144;28;20105;-78
2022/03/21 09:19:29;;;;;;;0.55;0.55;;;;;;;10.91;53.59;103238.47;5030432;28;20189;-79
2022/03/21 09:21:57;;;;;;;0.28;0.28;;;;;;;11.08;53.69;103237.00;5030550;28;20466;-81
2022/03/21 09:24:24;;;;;;;1.50;1.45;;;;;;;11.22;52.02;103245.16;5030749;28;20026;-79
2022/03/21 09:26:50;;;;;;;3.53;1.15;;;;;;;11.42;53.28;103236.63;5033086;28;20437;-79
2022/03/21 09:29:17;;;;;;;0.32;0.32;;;;;;;11.57;52.91;103231.53;5032224;28;20094;-78
2022/03/21 09:31:43;;;;;;;0.10;0.10;;;;;;;11.71;51.75;103233.50;5017687;28;20045;-77
2022/03/21 09:34:10;;;;;;;2.35;1.45;;;;;;;11.86;50.99;103232.81;5017828;28;20045;-80
2022/03/21 09:36:37;;;;;;;8.95;5.18;;;;;;;12.02;51.24;103233.94;5015980;28;20038;-79
2022/03/21 09:39:04;;;;;;;0.20;0.20;;;;;;;12.17;49.54;103236.75;5021303;28;20056;-79
2022/03/21 09:41:32;;;;;;;0.10;0.10;;;;;;;12.36;50.86;103231.66;5023458;28;20496;-77
2022/03/21 09:44:01;;;;;;;0.52;0.52;;;;;;;12.49;48.70;103225.59;5022994;28;20029;-78
2022/03/21 09:46:27;;;;;;;1.35;1.33;;;;;;;12.64;48.33;103231.97;5021779;28;20077;-77
2022/03/21 09:48:56;;;;;;;0.35;0.35;;;;;;;12.78;46.79;103222.31;5017291;28;20029;-78
2022/03/21 09:51:25;;;;;;;0.20;0.20;;;;;;;12.94;46.88;103229.56;5023486;28;20054;-78
2022/03/21 09:53:52;;;;;;;4.18;1.00;;;;;;;13.04;45.86;103219.00;5021235;28;20057;-79
2022/03/21 09:56:19;;;;;;;0.57;0.57;;;;;;;13.21;47.53;103222.69;5026612;28;20032;-78
2022/03/21 09:58:45;;;;;;;0.55;0.55;;;;;;;13.32;45.99;103219.19;5028300;28;20022;-77
2022/03/21 10:01:12;;;;;;;2.35;1.83;;;;;;;13.48;45.59;103214.88;5027738;28;20167;-76
2022/03/21 10:03:40;;;;;;;1.27;0.82;;;;;;;13.64;46.63;103221.19;5016665;28;20557;-76
2022/03/21 10:06:29;;;;;;;0.50;0.50;;;;;;;13.86;47.05;103220.41;5027060;28;20037;-77
2022/03/21 10:09:24;;;;;;;0.65;0.65;;;;;;;14.05;45.83;103208.03;5023297;28;20049;-75
2022/03/21 10:14:42;;;;;;;3.85;1.38;;;;;;;14.31;46.28;103211.69;5105011;22;20392;-74
2022/03/21 10:17:11;;;;;;;1.25;1.25;;;;;;;14.44;45.79;103208.13;5084815;28;20115;-74
2022/03/21 10:19:53;;;;;;;0.10;0.10;;;;;;;14.64;41.68;103204.59;5069120;28;20159;-74
2022/03/21 10:22:37;;;;;;;0.65;0.65;;;;;;;14.71;42.89;103204.63;5063506;28;20025;-76
2022/03/21 10:25:07;;;;;;;2.00;1.75;;;;;;;14.79;42.25;103207.31;5064916;28;20101;-75
2022/03/21 10:27:37;;;;;;;1.77;1.05;;;;;;;14.90;43.31;103193.09;5066257;28;20032;-75
2022/03/21 10:30:07;;;;;;;0.03;0.03;;;;;;;14.99;41.71;103198.41;5065662;28;20036;-75
2022/03/21 10:32:39;;;;;;;0.77;0.57;;;;;;;15.08;41.26;103197.50;5070944;28;20433;-75
2022/03/21 10:40:41;;;;;;;0.25;0.25;;;;;;;15.47;38.54;103207.22;5126395;27;20546;-76
2022/03/21 10:43:10;;;;;;;0.63;0.63;;;;;;;15.60;39.49;103202.75;5114533;28;20148;-76
2022/03/21 10:48:21;;;;;;;1.65;0.65;;;;;;;15.81;39.33;103204.44;5084670;27;20910;-78
2022/03/21 10:50:50;;;;;;;0.10;0.10;;;;;;;15.88;40.62;103201.78;5079654;28;20093;-76
2022/03/21 10:53:20;;;;;;;0.85;0.82;;;;;;;15.94;39.77;103196.41;5090173;28;20043;-77
2022/03/21 10:55:48;;;;;;;0.20;0.20;;;;;;;16.03;39.52;103199.03;5089137;28;20456;-77
2022/03/21 10:58:32;;;;;;;0.75;0.75;;;;;;;16.12;40.10;103192.75;5079762;28;20042;-76
2022/03/21 11:01:11;;;;;;;0.10;0.10;;;;;;;16.27;39.07;103189.97;5076764;28;20028;-76
2022/03/21 11:03:41;;;;;;;3.40;1.02;;;;;;;16.31;39.68;103185.47;5085600;28;20017;-77
2022/03/21 11:06:08;;;;;;;0.73;0.73;;;;;;;16.38;38.60;103186.34;5084145;28;20024;-76
2022/03/21 11:08:35;;;;;;;0.50;0.50;;;;;;;16.49;39.82;103184.47;5080586;28;20036;-76
2022/03/21 11:11:03;;;;;;;0.77;0.77;;;;;;;16.59;39.65;103180.81;5083458;28;20035;-77
2022/03/21 11:13:31;;;;;;;2.00;1.85;;;;;;;16.72;39.05;103186.06;5088968;28;20032;-77
2022/03/21 11:15:58;;;;;;;0.10;0.10;;;;;;;16.82;37.41;103183.31;5069432;28;20162;-77
2022/03/21 11:18:27;;;;;;;0.52;0.52;;;;;;;16.99;38.65;103179.63;5083357;28;20509;-77
2022/03/21 11:20:55;;;;;;;2.05;1.85;;;;;;;17.09;38.64;103186.66;5088308;28;20359;-77
2022/03/21 11:23:21;;;;;;;0.95;0.95;;;;;;;17.13;37.62;103182.16;5083418;28;20029;-77
2022/03/21 11:26:00;;;;;;;0.70;0.70;;;;;;;17.29;38.36;103172.16;5097628;28;20497;-77
2022/03/21 11:32:03;;;;;;;0.68;0.55;;;;;;;17.45;35.28;103172.88;5107278;27;20404;-77
2022/03/21 11:37:34;;;;;;;1.15;1.15;;;;;;;17.62;36.74;103173.56;5100417;27;20388;-78
2022/03/21 11:40:29;;;;;;;0.30;0.30;;;;;;;17.76;36.52;103170.69;5097712;28;20070;-78
2022/03/21 11:45:55;;;;;;;0.17;0.17;;;;;;;17.87;35.78;103153.56;5103588;27;20436;-78
2022/03/21 11:53:33;;;;;;;0.65;0.65;;;;;;;18.15;35.79;103153.22;5092102;27;20141;-78
2022/03/21 11:56:00;;;;;;;0.20;0.20;;;;;;;18.23;35.31;103151.28;5104405;28;20111;-78
2022/03/21 12:10:03;;;;;;;0.65;0.65;;;;;;;18.64;33.94;103141.72;5070586;28;20403;-76
2022/03/21 12:15:30;;;;;;;0.95;0.95;;;;;;;18.76;32.75;103146.84;5112472;27;20399;-79
2022/03/21 12:17:57;;;;;;;0.43;0.43;;;;;;;18.76;33.63;103152.19;5084957;28;20024;-78
2022/03/21 12:20:23;;;;;;;0.10;0.10;;;;;;;18.81;32.09;103148.56;5080527;28;20024;-78
2022/03/21 12:22:52;;;;;;;0.13;0.13;;;;;;;18.90;33.85;103148.38;5081085;28;20044;-79
2022/03/21 12:25:21;;;;;;;0.20;0.20;;;;;;;18.92;32.43;103142.09;5087781;28;20039;-79
2022/03/21 12:27:56;;;;;;;1.80;1.70;;;;;;;19.00;32.87;103141.09;5091804;28;20027;-78
2022/03/21 12:38:36;;;;;;;0.73;0.73;;;;;;;19.30;33.59;103126.19;4830609;27;8656562;-75
2022/03/21 12:41:13;;;;;;;0.25;0.25;;;;;;;19.47;32.35;103119.56;5114039;28;20031;-76
2022/03/21 12:46:24;;;;;;;0.75;0.75;;;;;;;19.55;32.62;103121.16;5106729;27;20419;-76
2022/03/21 12:48:58;;;;;;;1.27;1.25;;;;;;;19.67;32.98;103119.13;5086270;28;20047;-76
2022/03/21 12:51:39;;;;;;;1.08;1.00;;;;;;;19.75;31.79;103116.25;5085923;28;20032;-76
2022/03/21 12:54:08;;;;;;;0.35;0.35;;;;;;;19.77;32.95;103117.97;5087033;28;20036;-77